createdAt,value
2019-04-23T00:00:45.314Z,14.67
2019-04-23T00:02:53.681Z,14.97
2019-04-23T00:05:02.141Z,13.07
2019-04-23T00:07:15.779Z,15.93
2019-04-23T00:09:23.887Z,15.10
2019-04-23T00:11:32.406Z,14.47
2019-04-23T00:13:39.403Z,12.23
2019-04-23T00:15:59.909Z,14.27
2019-04-23T00:17:55.892Z,16.33
2019-04-23T00:20:09.599Z,15.57
2019-04-23T00:22:23.599Z,15.70
2019-04-23T00:25:19.301Z,15.60
2019-04-23T00:26:54.862Z,13.93
2019-04-23T00:29:05.346Z,12.87
2019-04-23T00:31:15.233Z,12.70
2019-04-23T00:33:25.075Z,13.63
2019-04-23T00:35:27.365Z,16.30
2019-04-23T00:37:35.593Z,14.00
2019-04-23T00:39:46.761Z,18.13
2019-04-23T00:41:50.485Z,19.43
2019-04-23T00:44:02.671Z,12.87
2019-04-23T00:46:06.303Z,14.73
2019-04-23T00:48:26.133Z,12.67
2019-04-23T00:50:30.352Z,17.93
2019-04-23T00:52:35.345Z,14.30
2019-04-23T00:56:54.497Z,12.20
2019-04-23T00:58:55.002Z,13.47
2019-04-23T01:01:03.127Z,12.53
2019-04-23T01:03:12.546Z,14.10
2019-04-23T01:05:27.769Z,14.70
2019-04-23T01:07:31.832Z,14.83
2019-04-23T01:09:45.744Z,17.30
2019-04-23T01:11:43.423Z,14.60
2019-04-23T01:14:11.425Z,15.93
2019-04-23T01:16:08.563Z,12.70
2019-04-23T01:20:50.227Z,14.43
2019-04-23T01:22:40.224Z,11.90
2019-04-23T01:25:05.392Z,13.40
2019-04-23T01:29:48.711Z,12.50
2019-04-23T01:31:47.903Z,16.13
2019-04-23T01:33:53.190Z,15.67
2019-04-23T01:36:23.468Z,13.83
2019-04-23T01:38:11.227Z,16.00
2019-04-23T01:42:35.485Z,16.63
2019-04-23T01:44:42.469Z,13.83
2019-04-23T01:48:52.282Z,16.93
2019-04-23T01:50:56.059Z,11.63
2019-04-23T01:55:21.216Z,13.13
2019-04-23T01:57:30.654Z,14.47
2019-04-23T01:59:31.859Z,14.10
2019-04-23T02:01:47.911Z,11.47
2019-04-23T02:03:58.274Z,16.67
2019-04-23T02:06:03.225Z,12.67
2019-04-23T02:10:25.898Z,12.03
2019-04-23T02:12:28.597Z,14.37
2019-04-23T02:14:36.465Z,11.93
2019-04-23T02:16:57.911Z,13.40
2019-04-23T02:18:56.787Z,13.47
2019-04-23T02:20:59.557Z,13.13
2019-04-23T02:23:24.652Z,13.97
2019-04-23T02:27:47.084Z,14.17
2019-04-23T02:30:11.912Z,14.27
2019-04-23T02:32:01.432Z,18.23
2019-04-23T02:38:30.855Z,11.83
2019-04-23T02:40:48.840Z,14.27
2019-04-23T02:44:56.232Z,16.90
2019-04-23T02:47:10.278Z,15.60
2019-04-23T02:49:27.236Z,14.23
2019-04-23T02:51:17.575Z,14.63
2019-04-23T02:53:37.548Z,15.43
2019-04-23T02:55:42.869Z,16.10
2019-04-23T03:02:14.818Z,13.63
2019-04-23T03:06:16.710Z,11.07
2019-04-23T03:08:26.764Z,15.00
2019-04-23T03:10:41.871Z,13.60
2019-04-23T03:12:48.960Z,12.17
2019-04-23T03:14:49.959Z,11.60
2019-04-23T03:16:56.550Z,11.67
2019-04-23T03:19:23.661Z,14.83
2019-04-23T03:23:49.976Z,11.97
2019-04-23T03:26:13.855Z,13.57
2019-04-23T03:27:55.882Z,14.00
2019-04-23T03:30:16.706Z,14.80
2019-04-23T03:35:09.564Z,12.90
2019-04-23T03:37:11.069Z,17.30
2019-04-23T03:41:01.020Z,13.27
2019-04-23T03:45:16.660Z,17.90
2019-04-23T03:49:30.483Z,11.13
2019-04-23T03:51:38.408Z,11.80
2019-04-23T03:55:56.229Z,12.27
2019-04-23T04:00:12.619Z,12.30
2019-04-23T04:02:31.000Z,14.27
2019-04-23T04:04:25.185Z,13.07
2019-04-23T04:06:45.472Z,13.00
2019-04-23T04:08:33.908Z,12.93
2019-04-23T04:10:51.991Z,11.70
2019-04-23T04:13:15.734Z,12.10
2019-04-23T04:15:07.777Z,13.53
2019-04-23T04:17:13.760Z,14.00
2019-04-23T04:23:43.718Z,12.60
2019-04-23T04:25:53.486Z,10.80
2019-04-23T04:28:03.484Z,18.23
2019-04-23T04:32:14.837Z,14.03
2019-04-23T04:34:43.842Z,11.47
2019-04-23T04:38:42.353Z,8.40
2019-04-23T04:40:45.647Z,10.00
2019-04-23T04:47:10.000Z,13.80
2019-04-23T04:55:45.092Z,14.07
2019-04-23T04:57:52.143Z,14.00
2019-04-23T05:02:16.240Z,14.03
2019-04-23T05:04:19.944Z,11.37
2019-04-23T05:06:44.291Z,16.07
2019-04-23T05:08:48.251Z,9.00
2019-04-23T05:11:07.765Z,13.73
2019-04-23T05:12:45.190Z,11.53
2019-04-23T05:17:04.539Z,12.77
2019-04-23T05:19:27.304Z,13.77
2019-04-23T05:23:50.921Z,12.60
2019-04-23T05:26:08.547Z,11.87
2019-04-23T05:28:04.170Z,14.93
2019-04-23T05:30:07.769Z,8.60
2019-04-23T05:32:12.031Z,8.03
2019-04-23T05:34:16.960Z,12.27
2019-04-23T05:36:30.750Z,19.13
2019-04-23T05:40:53.630Z,9.73
2019-04-23T05:42:58.543Z,10.87
2019-04-23T05:45:06.108Z,9.63
2019-04-23T05:47:16.020Z,10.20
2019-04-23T05:49:45.828Z,8.83
2019-04-23T05:51:42.083Z,12.43
2019-04-23T05:53:40.792Z,9.90
2019-04-23T05:55:55.530Z,9.90
2019-04-23T05:58:03.263Z,10.77
2019-04-23T06:00:10.669Z,10.00
2019-04-23T06:02:13.323Z,8.90
2019-04-23T06:08:45.981Z,11.07
2019-04-23T06:10:58.139Z,9.20
2019-04-23T06:13:06.308Z,12.00
2019-04-23T06:15:18.055Z,9.80
2019-04-23T06:17:29.825Z,14.33
2019-04-23T06:19:21.321Z,12.57
2019-04-23T06:21:44.736Z,12.67
2019-04-23T06:28:03.727Z,9.57
2019-04-23T06:30:08.406Z,9.63
2019-04-23T06:32:22.874Z,23.60
2019-04-23T06:40:53.987Z,10.80
2019-04-23T06:43:18.363Z,7.13
2019-04-23T06:45:17.541Z,9.17
2019-04-23T06:47:27.700Z,11.90
2019-04-23T06:49:47.578Z,9.30
2019-04-23T06:51:53.418Z,15.70
2019-04-23T06:53:51.297Z,14.80
2019-04-23T06:56:03.880Z,26.10
2019-04-23T06:58:15.717Z,20.10
2019-04-23T07:00:23.929Z,9.10
2019-04-23T07:02:22.410Z,15.87
2019-04-23T07:06:48.586Z,14.00
2019-04-23T07:09:05.280Z,27.07
2019-04-23T07:11:14.265Z,54.27
2019-04-23T07:13:10.382Z,22.90
2019-04-23T07:15:33.491Z,23.83
2019-04-23T07:17:21.344Z,12.00
2019-04-23T07:19:31.723Z,17.77
2019-04-23T07:21:33.496Z,12.93
2019-04-23T07:23:53.622Z,6.20
2019-04-23T07:25:55.930Z,16.47
2019-04-23T07:28:07.113Z,15.97
2019-04-23T07:30:13.619Z,26.43
2019-04-23T07:32:15.189Z,38.90
2019-04-23T07:34:24.427Z,25.37
2019-04-23T07:36:35.542Z,19.27
2019-04-23T07:38:56.381Z,15.73
2019-04-23T07:40:58.747Z,86.20
2019-04-23T07:43:03.604Z,47.23
2019-04-23T07:45:35.060Z,38.40
2019-04-23T07:48:06.826Z,38.30
2019-04-23T07:50:20.571Z,41.43
2019-04-23T07:52:14.929Z,22.03
2019-04-23T07:54:25.680Z,22.13
2019-04-23T07:56:27.975Z,31.90
2019-04-23T07:58:46.362Z,33.03
2019-04-23T08:00:45.496Z,29.10
2019-04-23T08:03:01.078Z,20.43
2019-04-23T08:05:11.484Z,49.27
2019-04-23T08:07:09.623Z,50.27
2019-04-23T08:09:22.327Z,51.70
2019-04-23T08:13:42.342Z,46.33
2019-04-23T08:15:42.581Z,24.97
2019-04-23T08:17:41.485Z,50.60
2019-04-23T08:20:03.097Z,56.40
2019-04-23T08:22:12.521Z,60.20
2019-04-23T08:24:38.549Z,71.23
2019-04-23T08:26:50.219Z,87.20
2019-04-23T08:29:07.807Z,116.03
2019-04-23T08:31:00.787Z,254.80
2019-04-23T08:33:23.458Z,100.03
2019-04-23T08:35:33.971Z,51.97
2019-04-23T08:39:41.111Z,36.67
2019-04-23T08:41:59.641Z,37.97
2019-04-23T08:43:57.438Z,34.80
2019-04-23T08:46:26.911Z,27.50
2019-04-23T08:50:40.047Z,43.97
2019-04-23T08:52:53.961Z,28.53
2019-04-23T08:55:08.668Z,26.87
2019-04-23T08:59:17.777Z,36.97
2019-04-23T09:01:52.432Z,50.77
2019-04-23T09:05:46.785Z,39.77
2019-04-23T09:07:56.896Z,62.30
2019-04-23T09:09:59.013Z,47.47
2019-04-23T09:14:08.912Z,29.23
2019-04-23T09:16:28.422Z,42.37
2019-04-23T09:18:26.330Z,53.03
2019-04-23T09:20:31.254Z,36.13
2019-04-23T09:22:43.578Z,55.77
2019-04-23T09:24:55.534Z,28.07
2019-04-23T09:27:09.716Z,51.43
2019-04-23T09:29:12.066Z,20.23
2019-04-23T09:34:00.030Z,38.57
2019-04-23T09:35:59.793Z,36.33
2019-04-23T09:50:01.250Z,41.20
2019-04-23T09:54:21.864Z,33.67
2019-04-23T09:56:30.236Z,38.97
2019-04-23T09:58:30.048Z,33.03
2019-04-23T10:02:45.684Z,23.77
2019-04-23T10:04:51.971Z,41.30
2019-04-23T10:06:58.682Z,34.37
2019-04-23T10:08:57.682Z,57.77
2019-04-23T10:11:00.419Z,37.63
2019-04-23T10:13:08.262Z,45.67
2019-04-23T10:15:33.035Z,48.63
2019-04-23T10:17:36.067Z,36.13
2019-04-23T10:19:42.762Z,31.67
2019-04-23T10:21:49.328Z,41.40
2019-04-23T10:23:57.101Z,28.50
2019-04-23T10:26:03.916Z,37.23
2019-04-23T10:28:20.425Z,45.13
2019-04-23T10:30:26.998Z,47.00
2019-04-23T10:32:33.590Z,28.80
2019-04-23T10:34:52.425Z,30.93
2019-04-23T10:36:49.345Z,35.70
2019-04-23T10:39:02.637Z,32.17
2019-04-23T10:41:04.412Z,29.00
2019-04-23T10:43:11.274Z,27.30
2019-04-23T10:45:57.614Z,28.57
2019-04-23T10:50:47.631Z,28.80
2019-04-23T10:53:02.550Z,24.00
2019-04-23T10:55:03.242Z,22.40
2019-04-23T10:57:04.014Z,25.27
2019-04-23T10:59:40.358Z,25.20
2019-04-23T11:01:50.069Z,17.47
2019-04-23T11:06:23.780Z,33.77
2019-04-23T11:08:30.953Z,32.07
2019-04-23T11:10:42.487Z,42.00
2019-04-23T11:13:10.800Z,24.97
2019-04-23T11:17:15.608Z,29.67
2019-04-23T11:19:24.827Z,28.70
2019-04-23T11:23:46.677Z,35.07
2019-04-23T11:25:44.786Z,25.00
2019-04-23T11:28:02.908Z,26.30
2019-04-23T11:30:15.102Z,48.30
2019-04-23T11:38:09.130Z,24.37
2019-04-23T11:40:36.939Z,37.37
2019-04-23T11:42:57.860Z,27.17
2019-04-23T11:45:10.529Z,23.70
2019-04-23T11:47:14.275Z,27.73
2019-04-23T11:49:34.586Z,23.60
2019-04-23T11:51:46.051Z,42.73
2019-04-23T11:53:45.555Z,21.20
2019-04-23T11:58:07.671Z,28.80
2019-04-23T12:00:05.584Z,29.50
2019-04-23T12:02:35.473Z,24.57
2019-04-23T12:04:37.120Z,26.33
2019-04-23T12:06:41.886Z,36.53
2019-04-23T12:08:58.921Z,24.53
2019-04-23T12:11:39.356Z,33.10
2019-04-23T12:13:28.531Z,18.67
2019-04-23T12:17:42.228Z,24.70
2019-04-23T12:19:57.525Z,26.07
2019-04-23T12:22:01.442Z,29.90
2019-04-23T12:26:23.751Z,24.67
2019-04-23T12:28:25.870Z,23.47
2019-04-23T12:30:36.316Z,23.83
2019-04-23T12:32:48.773Z,24.30
2019-04-23T12:36:50.952Z,18.67
2019-04-23T12:39:11.344Z,12.93
2019-04-23T12:41:17.483Z,18.80
2019-04-23T12:43:20.686Z,27.87
2019-04-23T12:45:31.712Z,18.33
2019-04-23T12:50:13.268Z,21.70
2019-04-23T12:51:55.498Z,14.97
2019-04-23T12:54:07.745Z,18.97
2019-04-23T12:56:08.885Z,20.47
2019-04-23T12:58:22.079Z,20.47
2019-04-23T13:00:32.245Z,27.23
2019-04-23T13:02:52.131Z,23.97
2019-04-23T13:06:57.839Z,19.50
2019-04-23T13:09:17.862Z,14.57
2019-04-23T13:11:14.033Z,14.83
2019-04-23T13:17:58.838Z,28.37
2019-04-23T13:19:56.061Z,14.97
2019-04-23T13:22:21.778Z,20.50
2019-04-23T13:24:11.330Z,16.07
2019-04-23T13:26:24.365Z,19.20
2019-04-23T13:30:55.762Z,15.30
2019-04-23T13:32:58.924Z,19.20
2019-04-23T13:35:19.843Z,25.93
2019-04-23T13:37:20.200Z,15.73
2019-04-23T13:39:30.925Z,16.33
2019-04-23T13:41:23.382Z,18.17
2019-04-23T13:48:02.869Z,24.50
2019-04-23T13:50:20.255Z,13.10
2019-04-23T13:52:43.007Z,19.73
2019-04-23T13:54:28.418Z,11.97
2019-04-23T13:56:49.258Z,12.87
2019-04-23T13:58:43.373Z,20.10
2019-04-23T14:01:01.091Z,17.90
2019-04-23T14:02:56.429Z,16.67
2019-04-23T14:05:17.776Z,14.37
2019-04-23T14:07:28.762Z,19.80
2019-04-23T14:09:37.408Z,19.53
2019-04-23T14:11:30.844Z,11.23
2019-04-23T14:18:27.049Z,20.70
2019-04-23T14:20:19.007Z,19.43
2019-04-23T14:24:38.832Z,10.67
2019-04-23T14:26:34.881Z,18.43
2019-04-23T14:28:44.770Z,19.70
2019-04-23T14:31:03.039Z,23.27
2019-04-23T14:33:12.298Z,21.10
2019-04-23T14:37:23.596Z,19.20
2019-04-23T14:39:33.182Z,28.53
2019-04-23T14:42:03.670Z,18.10
2019-04-23T14:43:56.594Z,19.00
2019-04-23T14:46:38.504Z,16.83
2019-04-23T14:48:14.911Z,20.83
2019-04-23T14:50:32.300Z,15.63
2019-04-23T14:52:39.061Z,16.27
2019-04-23T14:55:28.246Z,15.63
2019-04-23T14:57:00.749Z,10.30
2019-04-23T14:59:07.157Z,17.70
2019-04-23T15:03:44.541Z,12.60
2019-04-23T15:05:38.395Z,31.03
2019-04-23T15:09:57.370Z,12.37
2019-04-23T15:14:29.522Z,13.87
2019-04-23T15:18:37.832Z,19.90
2019-04-23T15:21:08.634Z,12.27
2019-04-23T15:23:25.683Z,16.63
2019-04-23T15:29:15.794Z,11.93
2019-04-23T15:31:48.778Z,13.47
2019-04-23T15:36:12.971Z,18.93
2019-04-23T15:38:27.057Z,14.77
2019-04-23T15:44:39.446Z,16.63
2019-04-23T15:46:51.063Z,9.87
2019-04-23T15:49:07.171Z,17.37
2019-04-23T15:51:11.790Z,14.80
2019-04-23T15:53:07.862Z,20.03
2019-04-23T15:55:22.425Z,15.03
2019-04-23T15:57:45.190Z,13.00
2019-04-23T15:59:44.099Z,11.40
2019-04-23T16:01:39.698Z,22.70
2019-04-23T16:03:29.021Z,18.73
2019-04-23T16:05:37.197Z,12.77
2019-04-23T16:08:01.728Z,15.53
2019-04-23T16:12:27.747Z,9.50
2019-04-23T16:14:46.076Z,15.57
2019-04-23T16:16:58.310Z,14.40
2019-04-23T16:19:20.771Z,13.77
2019-04-23T16:21:32.267Z,15.20
2019-04-23T16:23:26.403Z,22.37
2019-04-23T16:25:36.529Z,18.90
2019-04-23T16:27:53.026Z,20.47
2019-04-23T16:30:15.931Z,16.10
2019-04-23T16:32:18.856Z,14.83
2019-04-23T16:34:29.177Z,9.30
2019-04-23T16:36:38.884Z,13.77
2019-04-23T16:40:47.644Z,16.37
2019-04-23T16:43:08.650Z,12.20
2019-04-23T16:45:14.833Z,14.47
2019-04-23T16:47:24.608Z,15.77
2019-04-23T16:51:38.817Z,16.97
2019-04-23T16:53:44.520Z,14.40
2019-04-23T16:56:18.563Z,17.57
2019-04-23T16:58:21.434Z,35.00
2019-04-23T17:02:28.068Z,16.07
2019-04-23T17:04:38.622Z,15.43
2019-04-23T17:06:54.863Z,16.70
2019-04-23T17:16:06.677Z,19.30
2019-04-23T17:18:03.103Z,12.53
2019-04-23T17:20:25.217Z,26.47
2019-04-23T17:22:26.044Z,14.87
2019-04-23T17:25:04.255Z,10.57
2019-04-23T17:26:46.472Z,17.03
2019-04-23T17:28:54.414Z,19.60
2019-04-23T17:31:32.777Z,9.97
2019-04-23T17:33:31.444Z,15.27
2019-04-23T17:36:07.006Z,12.97
2019-04-23T17:38:09.057Z,16.47
2019-04-23T17:48:58.204Z,18.47
2019-04-23T17:51:11.453Z,13.17
2019-04-23T17:53:23.299Z,22.20
2019-04-23T17:55:32.503Z,14.00
2019-04-23T18:00:09.944Z,14.57
2019-04-23T18:02:27.348Z,13.90
2019-04-23T18:08:26.795Z,16.07
2019-04-23T18:10:51.670Z,18.10
2019-04-23T18:12:53.794Z,16.60
2019-04-23T18:15:00.362Z,12.97
2019-04-23T18:17:13.393Z,16.40
2019-04-23T18:19:16.802Z,17.53
2019-04-23T18:22:02.199Z,8.57
2019-04-23T18:24:16.480Z,18.97
2019-04-23T18:26:24.852Z,20.63
2019-04-23T18:28:29.701Z,20.97
2019-04-23T18:30:42.182Z,18.83
2019-04-23T18:33:33.844Z,16.50
2019-04-23T18:35:21.508Z,18.83
2019-04-23T18:37:25.797Z,11.97
2019-04-23T18:39:32.934Z,14.83
2019-04-23T18:41:43.303Z,13.40
2019-04-23T18:43:56.341Z,17.80
2019-04-23T18:46:08.987Z,11.93
2019-04-23T18:50:48.870Z,14.07
2019-04-23T18:53:00.694Z,16.17
2019-04-23T18:55:04.146Z,14.63
2019-04-23T18:57:12.896Z,17.13
2019-04-23T18:59:30.437Z,21.33
2019-04-23T19:01:37.392Z,15.80
2019-04-23T19:10:57.973Z,18.27
2019-04-23T19:13:14.154Z,17.20
2019-04-23T19:17:46.663Z,10.17
2019-04-23T19:19:48.076Z,19.40
2019-04-23T19:24:09.551Z,17.33
2019-04-23T19:26:41.751Z,13.30
2019-04-23T19:31:14.730Z,17.77
2019-04-23T19:33:13.611Z,22.37
2019-04-23T19:35:42.000Z,12.70
2019-04-23T19:37:44.433Z,11.23
2019-04-23T19:39:55.052Z,11.83
2019-04-23T19:44:02.861Z,16.30
2019-04-23T19:46:41.857Z,14.30
2019-04-23T19:50:56.290Z,15.20
2019-04-23T19:53:04.477Z,13.07
2019-04-23T19:57:23.179Z,16.80
2019-04-23T19:59:29.904Z,11.83
2019-04-23T20:01:47.206Z,12.23
2019-04-23T20:05:55.627Z,13.87
2019-04-23T20:10:12.343Z,15.77
2019-04-23T20:12:26.215Z,13.40
2019-04-23T20:14:41.694Z,14.77
2019-04-23T20:17:04.481Z,11.33
2019-04-23T20:19:07.236Z,18.17
2019-04-23T20:23:26.527Z,14.37
2019-04-23T20:25:57.087Z,15.23
2019-04-23T20:27:42.422Z,13.93
2019-04-23T20:34:37.386Z,14.23
2019-04-23T20:36:46.563Z,16.10
2019-04-23T20:39:02.629Z,14.07
2019-04-23T20:41:08.328Z,13.33
2019-04-23T20:43:05.753Z,15.40
2019-04-23T20:45:21.498Z,16.30
2019-04-23T20:47:27.254Z,13.77
2019-04-23T20:49:44.282Z,13.40
2019-04-23T20:51:54.949Z,20.67
2019-04-23T20:54:02.146Z,11.00
2019-04-23T20:56:07.172Z,12.97
2019-04-23T20:58:20.877Z,9.93
2019-04-23T21:00:32.501Z,12.70
2019-04-23T21:05:03.240Z,15.27
2019-04-23T21:07:12.192Z,21.73
2019-04-23T21:11:14.126Z,11.83
2019-04-23T21:13:43.401Z,12.30
2019-04-23T21:22:13.534Z,10.03
2019-04-23T21:24:11.287Z,11.30
2019-04-23T21:26:22.613Z,20.17
2019-04-23T21:28:37.208Z,10.77
2019-04-23T21:31:03.428Z,11.00
2019-04-23T21:32:56.233Z,10.97
2019-04-23T21:35:07.723Z,15.27
2019-04-23T21:37:04.510Z,13.33
2019-04-23T21:41:44.818Z,14.73
2019-04-23T21:44:05.636Z,9.70
2019-04-23T21:54:21.652Z,15.03
2019-04-23T22:00:59.446Z,8.37
2019-04-23T22:05:09.030Z,13.40
2019-04-23T22:07:16.767Z,13.57
2019-04-23T22:09:32.251Z,14.77
2019-04-23T22:14:05.518Z,12.00
2019-04-23T22:16:01.346Z,12.73
2019-04-23T22:18:00.222Z,12.70
2019-04-23T22:22:11.189Z,14.10
2019-04-23T22:24:19.448Z,10.50
2019-04-23T22:26:36.305Z,11.70
2019-04-23T22:28:57.752Z,10.70
2019-04-23T22:31:03.713Z,12.87
2019-04-23T22:33:11.241Z,13.23
2019-04-23T22:35:07.575Z,11.70
2019-04-23T22:37:19.412Z,11.60
2019-04-23T22:39:31.616Z,14.77
2019-04-23T22:41:46.216Z,11.87
2019-04-23T22:43:52.979Z,10.23
2019-04-23T22:45:59.992Z,11.83
2019-04-23T22:48:04.659Z,14.40
2019-04-23T22:50:16.340Z,12.03
2019-04-23T22:52:26.544Z,12.07
2019-04-23T22:54:21.169Z,11.33
2019-04-23T22:56:44.311Z,9.30
2019-04-23T22:59:05.606Z,14.93
2019-04-23T23:01:10.670Z,11.50
2019-04-23T23:03:22.641Z,9.07
2019-04-23T23:05:39.821Z,10.47
2019-04-23T23:07:49.639Z,16.07
2019-04-23T23:09:55.731Z,12.73
2019-04-23T23:16:07.173Z,13.37
2019-04-23T23:18:19.669Z,12.10
2019-04-23T23:22:41.065Z,11.10
2019-04-23T23:24:46.045Z,10.43
2019-04-23T23:26:54.294Z,10.33
2019-04-23T23:28:55.390Z,11.30
2019-04-23T23:31:18.717Z,13.83
2019-04-23T23:33:36.575Z,10.63
2019-04-23T23:37:34.587Z,15.33
2019-04-23T23:39:54.294Z,12.87
2019-04-23T23:44:24.438Z,14.80
2019-04-23T23:46:23.701Z,12.60
2019-04-23T23:48:12.871Z,10.53
2019-04-23T23:50:30.321Z,10.10
2019-04-23T23:52:40.949Z,10.30
2019-04-23T23:54:43.802Z,10.10
2019-04-23T23:56:58.361Z,8.20
2019-04-23T23:59:04.238Z,12.53
